Ozgur Aksoy — 9HA2587 — position and weather

sailwx.info

Track history (hours):
 
Tides and Currents Weather Stations Pressure Air Temp Water Temp Dewpoint Dewpoint Depression Visibility Wind Speed Wind Dir Waves Ship Positions

Ozgur Aksoy

Last reported at 2017-Aug-19 08:40 UTC. Time now 2017-Sep-24 10:35 UTC.
Position N 23°05' W 113°41'.
Warning: this ship's position is 36 days out of date.

Length 196 m; draft 11.5 m.

Type: Cargo ship. MMSI: 248950000.

Date/timePositionNaut miles runAvg speedWind from/ knotsBaromVisibWave heightAir tempDewpointWater temp
2017-Aug-19 08:40N 23°05' W 113°41'312.0
2017-Aug-19 08:27N 23°06' W 113°44'1112.1
2017-Aug-19 07:31N 23°12' W 113°54'312.2
2017-Aug-19 07:16N 23°14' W 113°57'1012.2
2017-Aug-19 06:29N 23°20' W 114°05'612.2
2017-Aug-19 06:00N 23°23' W 114°11'6812.5
2017-Aug-19 00:33N 24°00' W 115°12'212.5
2017-Aug-19 00:25N 24°01' W 115°14'512.8
2017-Aug-19 00:00N 24°04' W 115°19'712.8
2017-Aug-18 23:30N 24°08' W 115°25'1012.6
2017-Aug-18 22:42N 24°13' W 115°34'312.5
2017-Aug-18 22:29N 24°15' W 115°36'612.2
2017-Aug-18 22:00N 24°18' W 115°42'612.2
2017-Aug-18 21:30N 24°21' W 115°47'17612.2
2017-Aug-18 07:06N 26°18' W 118°13'112.1
2017-Aug-18 07:00N 26°18' W 118°14'612.0
2017-Aug-18 06:30N 26°22' W 118°19'612.0
2017-Aug-18 06:00N 26°26' W 118°24'611.9
2017-Aug-18 05:30N 26°30' W 118°29'611.9
2017-Aug-18 05:00N 26°35' W 118°34'611.9
2017-Aug-18 04:30N 26°39' W 118°39'611.8
2017-Aug-18 04:00N 26°42' W 118°44'611.8
2017-Aug-18 03:30N 26°46' W 118°49'1311.7
2017-Aug-18 02:25N 26°55' W 118°59'511.9
2017-Aug-18 02:00N 26°58' W 119°03'612.0
2017-Aug-18 01:30N 27°02' W 119°09'611.9
2017-Aug-18 01:00N 27°06' W 119°13'611.9
2017-Aug-18 00:30N 27°10' W 119°18'612.0
2017-Aug-18 00:00N 27°14' W 119°23'611.9
2017-Aug-17 23:30N 27°18' W 119°28'611.9
2017-Aug-17 23:00N 27°22' W 119°33'611.9
2017-Aug-17 22:30N 27°26' W 119°38'612.0
2017-Aug-17 22:00N 27°31' W 119°43'611.8
2017-Aug-17 21:30N 27°35' W 119°48'611.8
2017-Aug-17 21:01N 27°39' W 119°53'612.0
2017-Aug-17 20:30N 27°43' W 119°57'612.0
2017-Aug-17 20:00N 27°47' W 120°02'612.1
2017-Aug-17 19:30N 27°51' W 120°08'612.1
2017-Aug-17 19:01N 27°55' W 120°13'612.2
2017-Aug-17 18:30N 27°59' W 120°18'612.3
2017-Aug-17 18:00N 28°03' W 120°23'612.3
2017-Aug-17 17:30N 28°08' W 120°28'612.3
2017-Aug-17 17:00N 28°12' W 120°33'612.2
2017-Aug-17 16:29N 28°16' W 120°39'812.3
2017-Aug-17 15:48N 28°22' W 120°46'412.2
2017-Aug-17 15:29N 28°24' W 120°49'612.4
2017-Aug-17 14:59N 28°29' W 120°54'612.4
2017-Aug-17 14:31N 28°32' W 120°59'612.5
2017-Aug-17 14:00N 28°37' W 121°04'712.2
2017-Aug-17 13:28N 28°41' W 121°10'612.2
2017-Aug-17 12:58N 28°45' W 121°15'812.2
2017-Aug-17 12:19N 28°51' W 121°22'1412.3
2017-Aug-17 11:11N 29°00' W 121°33'212.4
2017-Aug-17 11:00N 29°02' W 121°35'712.4
2017-Aug-17 10:27N 29°07' W 121°41'812.3
2017-Aug-17 09:46N 29°13' W 121°47'712.3
2017-Aug-17 09:14N 29°18' W 121°52'312.4
2017-Aug-17 09:00N 29°20' W 121°54'612.5
2017-Aug-17 08:30N 29°24' W 121°59'612.7
2017-Aug-17 08:00N 29°29' W 122°04'612.6
2017-Aug-17 07:31N 29°34' W 122°08'712.5
2017-Aug-17 06:59N 29°40' W 122°12'612.6
2017-Aug-17 06:30N 29°45' W 122°16'612.8
2017-Aug-17 06:00N 29°50' W 122°20'612.7
2017-Aug-17 05:30N 29°56' W 122°24'612.6
2017-Aug-17 05:00N 30°01' W 122°27'812.6
2017-Aug-17 04:24N 30°08' W 122°32'512.4
2017-Aug-17 04:00N 30°12' W 122°35'812.3
2017-Aug-17 03:20N 30°19' W 122°40'512.4
2017-Aug-17 02:56N 30°23' W 122°43'612.4
2017-Aug-17 02:25N 30°28' W 122°47'512.5
2017-Aug-17 02:00N 30°33' W 122°51'612.6
2017-Aug-17 01:30N 30°38' W 122°55'612.5
2017-Aug-17 01:00N 30°43' W 122°59'612.4
2017-Aug-17 00:30N 30°48' W 123°03'712.3
2017-Aug-16 23:56N 30°54' W 123°07'512.2
2017-Aug-16 23:30N 30°59' W 123°10'1512.1
2017-Aug-16 22:16N 31°11' W 123°20'912.3
2017-Aug-16 21:30N 31°19' W 123°25'1312.1
2017-Aug-16 20:28N 31°30' W 123°33'2911.8
2017-Aug-16 18:00N 31°55' W 123°52'4212.1
2017-Aug-16 14:30N 32°30' W 124°18'1512.5
2017-Aug-16 13:20N 32°42' W 124°28'5312.4
2017-Aug-16 09:01N 33°28' W 125°02'112.2
2017-Aug-16 08:59N 33°28' W 125°03'712.3
2017-Aug-16 08:25N 33°34' W 125°07'28812.2
2017-Aug-15 08:48N 37°36' W 128°18'  
2017-Aug-12 23:47N 47°53' W 126°09'311.6
2017-Aug-12 23:30N 47°55' W 126°05'611.6
2017-Aug-12 22:58N 47°59' W 125°57'511.7
2017-Aug-12 22:30N 48°02' W 125°51'1611.9
2017-Aug-12 21:11N 48°13' W 125°34'311.8
2017-Aug-12 20:57N 48°15' W 125°31'511.6
2017-Aug-12 20:30N 48°19' W 125°26'611.7
2017-Aug-12 19:58N 48°23' W 125°19'612.3
2017-Aug-12 19:30N 48°28' W 125°14'612.1
2017-Aug-12 19:00N 48°32' W 125°08'713.0
2017-Aug-12 18:30N 48°32' W 124°58'713.6
2017-Aug-12 18:00N 48°31' W 124°48'713.3
2017-Aug-12 17:30N 48°29' W 124°38'713.2
2017-Aug-12 17:00N 48°26' W 124°29'612.9
2017-Aug-12 16:30N 48°24' W 124°20'612.1
2017-Aug-12 16:00N 48°22' W 124°11'612.0
2017-Aug-12 15:30N 48°19' W 124°03'611.9
2017-Aug-12 15:00N 48°17' W 123°55'611.8
2017-Aug-12 14:30N 48°16' W 123°46'611.2
2017-Aug-12 14:00N 48°16' W 123°38'5 9.6
2017-Aug-12 13:30N 48°16' W 123°30'510.9
2017-Aug-12 13:00N 48°20' W 123°26'4 8.4
2017-Aug-12 12:30N 48°23' W 123°21'5 9.3
2017-Aug-12 12:00N 48°24' W 123°14'510.4
2017-Aug-12 11:30N 48°29' W 123°13'612.1
2017-Aug-12 11:00N 48°35' W 123°14'611.5
2017-Aug-12 10:30N 48°41' W 123°15'611.8
2017-Aug-12 10:00N 48°44' W 123°08'611.7
2017-Aug-12 09:30N 48°47' W 123°01'611.7
2017-Aug-12 09:00N 48°52' W 123°05'713.0
2017-Aug-12 08:30N 48°57' W 123°13'612.7
2017-Aug-12 08:00N 49°01' W 123°20'611.3
2017-Aug-12 07:30N 49°06' W 123°24'612.5
2017-Aug-12 07:00N 49°12' W 123°22'612.3
2017-Aug-12 06:30N 49°18' W 123°19'611.9
2017-Aug-12 06:00N 49°19' W 123°10'4 8.1
2017-Aug-12 05:30N 49°18' W 123°04'0 0.2
2017-Aug-12 04:56N 49°18' W 123°04'0 0.1
2017-Aug-12 04:28N 49°18' W 123°04'0 0.1
2017-Aug-12 03:58N 49°18' W 123°04'0 0.1
2017-Aug-12 03:25N 49°18' W 123°04'0 0.0
2017-Aug-12 02:58N 49°18' W 123°04'0 0.1
2017-Aug-12 02:28N 49°18' W 123°04'0 0.0
2017-Aug-12 01:58N 49°18' W 123°04'0 0.1
2017-Aug-12 01:28N 49°18' W 123°04'0 0.0
2017-Aug-12 00:58N 49°18' W 123°04'0 0.0
2017-Aug-12 00:28N 49°18' W 123°04'0 0.0
2017-Aug-11 23:58N 49°18' W 123°04'0 0.0
2017-Aug-11 23:29N 49°18' W 123°04'0 0.0
2017-Aug-11 22:55N 49°18' W 123°04'0 0.0
2017-Aug-11 22:25N 49°18' W 123°04'0 0.0
2017-Aug-11 21:58N 49°18' W 123°04'0 0.1
2017-Aug-11 21:28N 49°18' W 123°04'0 0.2
2017-Aug-11 20:58N 49°18' W 123°04'0 0.2
2017-Aug-11 20:28N 49°18' W 123°04'0 0.0
2017-Aug-11 19:55N 49°18' W 123°04'0 0.1
2017-Aug-11 19:29N 49°18' W 123°04'0 0.0
2017-Aug-11 18:58N 49°18' W 123°04'0 0.0
2017-Aug-11 18:28N 49°18' W 123°04'0 0.1
2017-Aug-11 17:58N 49°18' W 123°04'0 0.3
2017-Aug-11 17:25N 49°18' W 123°04'0 0.1
2017-Aug-11 16:59N 49°18' W 123°04'0 0.1
2017-Aug-11 16:25N 49°18' W 123°04'0 0.0
2017-Aug-11 15:58N 49°18' W 123°04'0 0.0
2017-Aug-11 15:28N 49°18' W 123°04'0 0.0
2017-Aug-11 14:58N 49°18' W 123°04'0 0.0
2017-Aug-11 14:29N 49°18' W 123°04'0 0.0
2017-Aug-11 13:28N 49°18' W 123°04'0 0.0
2017-Aug-11 12:59N 49°18' W 123°04'0 0.0
2017-Aug-11 12:28N 49°18' W 123°04'0 0.0
2017-Aug-11 11:58N 49°18' W 123°04'0 0.3
2017-Aug-11 11:25N 49°18' W 123°04'0 0.3
2017-Aug-11 10:58N 49°18' W 123°04'0 0.1
2017-Aug-11 10:28N 49°18' W 123°04'0 0.0
2017-Aug-11 09:58N 49°18' W 123°04'0 0.0
2017-Aug-11 09:28N 49°18' W 123°04'0 0.1
2017-Aug-11 09:00N 49°18' W 123°04'1 2.6
2017-Aug-11 08:30N 49°18' W 123°06'3 6.9
2017-Aug-11 08:00N 49°19' W 123°11'510.9
2017-Aug-11 07:30N 49°16' W 123°18'612.2
2017-Aug-11 07:00N 49°10' W 123°20'4 8.7
2017-Aug-11 06:30N 49°06' W 123°20'5 9.6
2017-Aug-11 06:00N 49°08' W 123°14'5 9.1
2017-Aug-11 05:30N 49°07' W 123°07'4 9.0
2017-Aug-11 05:00N 49°09' W 123°01'4 8.1
2017-Aug-11 04:30N 49°10' W 122°55'1 0.9
2017-Aug-11 03:58N 49°11' W 122°55'0 0.0
2017-Aug-11 03:10N 49°11' W 122°55'0 0.0
2017-Aug-11 02:58N 49°11' W 122°55'0 0.0
2017-Aug-11 02:10N 49°11' W 122°55'0 0.0
2017-Aug-11 01:58N 49°11' W 122°55'0 0.0
2017-Aug-11 01:16N 49°11' W 122°55'0 0.0
2017-Aug-11 00:58N 49°11' W 122°55'0 0.0
2017-Aug-11 00:28N 49°11' W 122°55'0 0.0
2017-Aug-10 23:58N 49°11' W 122°55'0 0.0
2017-Aug-10 22:22N 49°11' W 122°55'0 0.0
2017-Aug-10 21:55N 49°11' W 122°55'0 0.0
2017-Aug-10 21:25N 49°11' W 122°55'0 0.0
2017-Aug-10 20:58N 49°11' W 122°55'0 0.0
2017-Aug-10 20:28N 49°11' W 122°55'0 0.0
2017-Aug-10 19:58N 49°11' W 122°55'0 0.0
2017-Aug-10 19:28N 49°11' W 122°55'0 0.0
2017-Aug-10 18:58N 49°11' W 122°55'0 0.0
2017-Aug-10 18:28N 49°11' W 122°55'0 0.0
2017-Aug-10 17:58N 49°11' W 122°55'0 0.0
2017-Aug-10 17:28N 49°11' W 122°55'0 0.0
2017-Aug-10 16:58N 49°11' W 122°55'0 0.0
2017-Aug-10 16:28N 49°11' W 122°55'0 0.0
2017-Aug-09 22:16N 49°11' W 122°55'0 0.0
2017-Aug-09 21:46N 49°11' W 122°55'0 0.0
2017-Aug-09 10:10N 49°11' W 122°55'0 0.0
2017-Aug-09 09:58N 49°11' W 122°55'0 0.0
2017-Aug-09 09:28N 49°11' W 122°55'0 0.0
2017-Aug-09 08:58N 49°11' W 122°55'  
Track history (hours):
 
Tides and Currents Weather Stations Pressure Air Temp Water Temp Dewpoint Dewpoint Depression Visibility Wind Speed Wind Dir Waves Ship Positions

Ozgur Aksoy

Last reported at 2017-Aug-19 08:40 UTC. Time now 2017-Sep-24 10:35 UTC.
Position N 23°05' W 113°41'.
Warning: this ship's position is 36 days out of date.

Length 196 m; draft 11.5 m.

Type: Cargo ship. MMSI: 248950000.

Date/timePositionNaut miles runAvg speedWind from/ knotsBaromVisibWave heightAir tempDewpointWater temp
2017-Aug-19 08:40N 23°05' W 113°41'312.0
2017-Aug-19 08:27N 23°06' W 113°44'1112.1
2017-Aug-19 07:31N 23°12' W 113°54'312.2
2017-Aug-19 07:16N 23°14' W 113°57'1012.2
2017-Aug-19 06:29N 23°20' W 114°05'612.2
2017-Aug-19 06:00N 23°23' W 114°11'6812.5
2017-Aug-19 00:33N 24°00' W 115°12'212.5
2017-Aug-19 00:25N 24°01' W 115°14'512.8
2017-Aug-19 00:00N 24°04' W 115°19'712.8
2017-Aug-18 23:30N 24°08' W 115°25'1012.6
2017-Aug-18 22:42N 24°13' W 115°34'312.5
2017-Aug-18 22:29N 24°15' W 115°36'612.2
2017-Aug-18 22:00N 24°18' W 115°42'612.2
2017-Aug-18 21:30N 24°21' W 115°47'17612.2
2017-Aug-18 07:06N 26°18' W 118°13'112.1
2017-Aug-18 07:00N 26°18' W 118°14'612.0
2017-Aug-18 06:30N 26°22' W 118°19'612.0
2017-Aug-18 06:00N 26°26' W 118°24'611.9
2017-Aug-18 05:30N 26°30' W 118°29'611.9
2017-Aug-18 05:00N 26°35' W 118°34'611.9
2017-Aug-18 04:30N 26°39' W 118°39'611.8
2017-Aug-18 04:00N 26°42' W 118°44'611.8
2017-Aug-18 03:30N 26°46' W 118°49'1311.7
2017-Aug-18 02:25N 26°55' W 118°59'511.9
2017-Aug-18 02:00N 26°58' W 119°03'612.0
2017-Aug-18 01:30N 27°02' W 119°09'611.9
2017-Aug-18 01:00N 27°06' W 119°13'611.9
2017-Aug-18 00:30N 27°10' W 119°18'612.0
2017-Aug-18 00:00N 27°14' W 119°23'611.9
2017-Aug-17 23:30N 27°18' W 119°28'611.9
2017-Aug-17 23:00N 27°22' W 119°33'611.9
2017-Aug-17 22:30N 27°26' W 119°38'612.0
2017-Aug-17 22:00N 27°31' W 119°43'611.8
2017-Aug-17 21:30N 27°35' W 119°48'611.8
2017-Aug-17 21:01N 27°39' W 119°53'612.0
2017-Aug-17 20:30N 27°43' W 119°57'612.0
2017-Aug-17 20:00N 27°47' W 120°02'612.1
2017-Aug-17 19:30N 27°51' W 120°08'612.1
2017-Aug-17 19:01N 27°55' W 120°13'612.2
2017-Aug-17 18:30N 27°59' W 120°18'612.3
2017-Aug-17 18:00N 28°03' W 120°23'612.3
2017-Aug-17 17:30N 28°08' W 120°28'612.3
2017-Aug-17 17:00N 28°12' W 120°33'612.2
2017-Aug-17 16:29N 28°16' W 120°39'812.3
2017-Aug-17 15:48N 28°22' W 120°46'412.2
2017-Aug-17 15:29N 28°24' W 120°49'612.4
2017-Aug-17 14:59N 28°29' W 120°54'612.4
2017-Aug-17 14:31N 28°32' W 120°59'612.5
2017-Aug-17 14:00N 28°37' W 121°04'712.2
2017-Aug-17 13:28N 28°41' W 121°10'612.2
2017-Aug-17 12:58N 28°45' W 121°15'812.2
2017-Aug-17 12:19N 28°51' W 121°22'1412.3
2017-Aug-17 11:11N 29°00' W 121°33'212.4
2017-Aug-17 11:00N 29°02' W 121°35'712.4
2017-Aug-17 10:27N 29°07' W 121°41'812.3
2017-Aug-17 09:46N 29°13' W 121°47'712.3
2017-Aug-17 09:14N 29°18' W 121°52'312.4
2017-Aug-17 09:00N 29°20' W 121°54'612.5
2017-Aug-17 08:30N 29°24' W 121°59'612.7
2017-Aug-17 08:00N 29°29' W 122°04'612.6
2017-Aug-17 07:31N 29°34' W 122°08'712.5
2017-Aug-17 06:59N 29°40' W 122°12'612.6
2017-Aug-17 06:30N 29°45' W 122°16'612.8
2017-Aug-17 06:00N 29°50' W 122°20'612.7
2017-Aug-17 05:30N 29°56' W 122°24'612.6
2017-Aug-17 05:00N 30°01' W 122°27'812.6
2017-Aug-17 04:24N 30°08' W 122°32'512.4
2017-Aug-17 04:00N 30°12' W 122°35'812.3
2017-Aug-17 03:20N 30°19' W 122°40'512.4
2017-Aug-17 02:56N 30°23' W 122°43'612.4
2017-Aug-17 02:25N 30°28' W 122°47'512.5
2017-Aug-17 02:00N 30°33' W 122°51'612.6
2017-Aug-17 01:30N 30°38' W 122°55'612.5
2017-Aug-17 01:00N 30°43' W 122°59'612.4
2017-Aug-17 00:30N 30°48' W 123°03'712.3
2017-Aug-16 23:56N 30°54' W 123°07'512.2
2017-Aug-16 23:30N 30°59' W 123°10'1512.1
2017-Aug-16 22:16N 31°11' W 123°20'912.3
2017-Aug-16 21:30N 31°19' W 123°25'1312.1
2017-Aug-16 20:28N 31°30' W 123°33'2911.8
2017-Aug-16 18:00N 31°55' W 123°52'4212.1
2017-Aug-16 14:30N 32°30' W 124°18'1512.5
2017-Aug-16 13:20N 32°42' W 124°28'5312.4
2017-Aug-16 09:01N 33°28' W 125°02'112.2
2017-Aug-16 08:59N 33°28' W 125°03'712.3
2017-Aug-16 08:25N 33°34' W 125°07'28812.2
2017-Aug-15 08:48N 37°36' W 128°18'  
2017-Aug-12 23:47N 47°53' W 126°09'311.6
2017-Aug-12 23:30N 47°55' W 126°05'611.6
2017-Aug-12 22:58N 47°59' W 125°57'511.7
2017-Aug-12 22:30N 48°02' W 125°51'1611.9
2017-Aug-12 21:11N 48°13' W 125°34'311.8
2017-Aug-12 20:57N 48°15' W 125°31'511.6
2017-Aug-12 20:30N 48°19' W 125°26'611.7
2017-Aug-12 19:58N 48°23' W 125°19'612.3
2017-Aug-12 19:30N 48°28' W 125°14'612.1
2017-Aug-12 19:00N 48°32' W 125°08'713.0
2017-Aug-12 18:30N 48°32' W 124°58'713.6
2017-Aug-12 18:00N 48°31' W 124°48'713.3
2017-Aug-12 17:30N 48°29' W 124°38'713.2
2017-Aug-12 17:00N 48°26' W 124°29'612.9
2017-Aug-12 16:30N 48°24' W 124°20'612.1
2017-Aug-12 16:00N 48°22' W 124°11'612.0
2017-Aug-12 15:30N 48°19' W 124°03'611.9
2017-Aug-12 15:00N 48°17' W 123°55'611.8
2017-Aug-12 14:30N 48°16' W 123°46'611.2
2017-Aug-12 14:00N 48°16' W 123°38'5 9.6
2017-Aug-12 13:30N 48°16' W 123°30'510.9
2017-Aug-12 13:00N 48°20' W 123°26'4 8.4
2017-Aug-12 12:30N 48°23' W 123°21'5 9.3
2017-Aug-12 12:00N 48°24' W 123°14'510.4
2017-Aug-12 11:30N 48°29' W 123°13'612.1
2017-Aug-12 11:00N 48°35' W 123°14'611.5
2017-Aug-12 10:30N 48°41' W 123°15'611.8
2017-Aug-12 10:00N 48°44' W 123°08'611.7
2017-Aug-12 09:30N 48°47' W 123°01'611.7
2017-Aug-12 09:00N 48°52' W 123°05'713.0
2017-Aug-12 08:30N 48°57' W 123°13'612.7
2017-Aug-12 08:00N 49°01' W 123°20'611.3
2017-Aug-12 07:30N 49°06' W 123°24'612.5
2017-Aug-12 07:00N 49°12' W 123°22'612.3
2017-Aug-12 06:30N 49°18' W 123°19'611.9
2017-Aug-12 06:00N 49°19' W 123°10'4 8.1
2017-Aug-12 05:30N 49°18' W 123°04'0 0.2
2017-Aug-12 04:56N 49°18' W 123°04'0 0.1
2017-Aug-12 04:28N 49°18' W 123°04'0 0.1
2017-Aug-12 03:58N 49°18' W 123°04'0 0.1
2017-Aug-12 03:25N 49°18' W 123°04'0 0.0
2017-Aug-12 02:58N 49°18' W 123°04'0 0.1
2017-Aug-12 02:28N 49°18' W 123°04'0 0.0
2017-Aug-12 01:58N 49°18' W 123°04'0 0.1
2017-Aug-12 01:28N 49°18' W 123°04'0 0.0
2017-Aug-12 00:58N 49°18' W 123°04'0 0.0
2017-Aug-12 00:28N 49°18' W 123°04'0 0.0
2017-Aug-11 23:58N 49°18' W 123°04'0 0.0
2017-Aug-11 23:29N 49°18' W 123°04'0 0.0
2017-Aug-11 22:55N 49°18' W 123°04'0 0.0
2017-Aug-11 22:25N 49°18' W 123°04'0 0.0
2017-Aug-11 21:58N 49°18' W 123°04'0 0.1
2017-Aug-11 21:28N 49°18' W 123°04'0 0.2
2017-Aug-11 20:58N 49°18' W 123°04'0 0.2
2017-Aug-11 20:28N 49°18' W 123°04'0 0.0
2017-Aug-11 19:55N 49°18' W 123°04'0 0.1
2017-Aug-11 19:29N 49°18' W 123°04'0 0.0
2017-Aug-11 18:58N 49°18' W 123°04'0 0.0
2017-Aug-11 18:28N 49°18' W 123°04'0 0.1
2017-Aug-11 17:58N 49°18' W 123°04'0 0.3
2017-Aug-11 17:25N 49°18' W 123°04'0 0.1
2017-Aug-11 16:59N 49°18' W 123°04'0 0.1
2017-Aug-11 16:25N 49°18' W 123°04'0 0.0
2017-Aug-11 15:58N 49°18' W 123°04'0 0.0
2017-Aug-11 15:28N 49°18' W 123°04'0 0.0
2017-Aug-11 14:58N 49°18' W 123°04'0 0.0
2017-Aug-11 14:29N 49°18' W 123°04'0 0.0
2017-Aug-11 13:28N 49°18' W 123°04'0 0.0
2017-Aug-11 12:59N 49°18' W 123°04'0 0.0
2017-Aug-11 12:28N 49°18' W 123°04'0 0.0
2017-Aug-11 11:58N 49°18' W 123°04'0 0.3
2017-Aug-11 11:25N 49°18' W 123°04'0 0.3
2017-Aug-11 10:58N 49°18' W 123°04'0 0.1
2017-Aug-11 10:28N 49°18' W 123°04'0 0.0
2017-Aug-11 09:58N 49°18' W 123°04'0 0.0
2017-Aug-11 09:28N 49°18' W 123°04'0 0.1
2017-Aug-11 09:00N 49°18' W 123°04'1 2.6
2017-Aug-11 08:30N 49°18' W 123°06'3 6.9
2017-Aug-11 08:00N 49°19' W 123°11'510.9
2017-Aug-11 07:30N 49°16' W 123°18'612.2
2017-Aug-11 07:00N 49°10' W 123°20'4 8.7
2017-Aug-11 06:30N 49°06' W 123°20'5 9.6
2017-Aug-11 06:00N 49°08' W 123°14'5 9.1
2017-Aug-11 05:30N 49°07' W 123°07'4 9.0
2017-Aug-11 05:00N 49°09' W 123°01'4 8.1
2017-Aug-11 04:30N 49°10' W 122°55'1 0.9
2017-Aug-11 03:58N 49°11' W 122°55'0 0.0
2017-Aug-11 03:10N 49°11' W 122°55'0 0.0
2017-Aug-11 02:58N 49°11' W 122°55'0 0.0
2017-Aug-11 02:10N 49°11' W 122°55'0 0.0
2017-Aug-11 01:58N 49°11' W 122°55'0 0.0
2017-Aug-11 01:16N 49°11' W 122°55'0 0.0
2017-Aug-11 00:58N 49°11' W 122°55'0 0.0
2017-Aug-11 00:28N 49°11' W 122°55'0 0.0
2017-Aug-10 23:58N 49°11' W 122°55'0 0.0
2017-Aug-10 22:22N 49°11' W 122°55'0 0.0
2017-Aug-10 21:55N 49°11' W 122°55'0 0.0
2017-Aug-10 21:25N 49°11' W 122°55'0 0.0
2017-Aug-10 20:58N 49°11' W 122°55'0 0.0
2017-Aug-10 20:28N 49°11' W 122°55'0 0.0
2017-Aug-10 19:58N 49°11' W 122°55'0 0.0
2017-Aug-10 19:28N 49°11' W 122°55'0 0.0
2017-Aug-10 18:58N 49°11' W 122°55'0 0.0
2017-Aug-10 18:28N 49°11' W 122°55'0 0.0
2017-Aug-10 17:58N 49°11' W 122°55'0 0.0
2017-Aug-10 17:28N 49°11' W 122°55'0 0.0
2017-Aug-10 16:58N 49°11' W 122°55'0 0.0
2017-Aug-10 16:28N 49°11' W 122°55'0 0.0
2017-Aug-09 22:16N 49°11' W 122°55'0 0.0
2017-Aug-09 21:46N 49°11' W 122°55'0 0.0
2017-Aug-09 10:10N 49°11' W 122°55'0 0.0
2017-Aug-09 09:58N 49°11' W 122°55'0 0.0
2017-Aug-09 09:28N 49°11' W 122°55'0 0.0
2017-Aug-09 08:58N 49°11' W 122°55'  

Dump ship's entire track history